createdAt,value
2022-12-04T00:03:32.061Z,0.4
2022-12-04T00:08:44.484Z,0.5
2022-12-04T00:30:01.209Z,0.5
2022-12-04T00:35:17.758Z,0.5
2022-12-04T00:40:31.041Z,0.5
2022-12-04T00:45:47.886Z,0.5
2022-12-04T00:51:05.899Z,0.3
2022-12-04T00:56:11.926Z,0.3
2022-12-04T01:01:22.872Z,0.3
2022-12-04T01:22:38.457Z,0.3
2022-12-04T01:27:50.012Z,0.3
2022-12-04T01:38:27.148Z,0.3
2022-12-04T01:49:00.657Z,0.3
2022-12-04T01:59:38.583Z,0.3
2022-12-04T02:04:50.467Z,0.4
2022-12-04T02:10:01.784Z,0.5
2022-12-04T02:15:14.015Z,0.6
2022-12-04T02:31:08.518Z,0.6
2022-12-04T02:41:41.698Z,0.6
2022-12-04T02:46:54.235Z,0.5
2022-12-04T02:52:10.142Z,0.5
2022-12-04T02:57:23.533Z,0.5
2022-12-04T03:02:39.858Z,0.5
2022-12-04T03:07:49.460Z,0.5
2022-12-04T03:13:05.587Z,0.5
2022-12-04T03:18:21.483Z,0.5
2022-12-04T03:23:33.869Z,0.5
2022-12-04T03:28:46.310Z,0.4
2022-12-04T03:39:22.773Z,0.4
2022-12-04T03:44:39.067Z,0.4
2022-12-04T03:49:51.707Z,0.5
2022-12-04T03:55:05.668Z,0.5
2022-12-04T04:11:00.567Z,0.2
2022-12-04T04:16:10.398Z,0.1
2022-12-04T04:21:26.369Z,0.1
2022-12-04T04:37:20.997Z,0.2
2022-12-04T04:58:37.407Z,0.2
2022-12-04T05:19:56.306Z,0.2
2022-12-04T05:35:50.438Z,0.2
2022-12-04T05:41:03.065Z,0.3
2022-12-04T05:46:18.451Z,0.3
2022-12-04T05:51:34.730Z,0.3
2022-12-04T05:56:46.011Z,0.3
2022-12-04T06:07:18.168Z,0.3
2022-12-04T06:12:31.448Z,0.3
2022-12-04T06:17:47.410Z,0.3
2022-12-04T06:22:59.198Z,0.5
2022-12-04T06:28:15.256Z,0.5
2022-12-04T06:33:31.100Z,0.5
2022-12-04T06:38:43.128Z,0.4
2022-12-04T06:43:53.468Z,0.5
2022-12-04T06:49:09.874Z,0.5
2022-12-04T06:54:23.995Z,0.5
2022-12-04T06:59:39.736Z,0.5
2022-12-04T07:04:51.107Z,0.4
2022-12-04T07:10:03.149Z,0.4
2022-12-04T07:15:18.599Z,0.4
2022-12-04T07:20:31.051Z,0.3
2022-12-04T07:25:39.523Z,0.3
2022-12-04T07:30:53.082Z,0.3
2022-12-04T07:46:51.941Z,0.3
2022-12-04T07:52:04.379Z,0.6
2022-12-04T07:57:16.241Z,0.6
2022-12-04T08:02:27.520Z,0.5
2022-12-04T08:07:39.661Z,0.5
2022-12-04T08:12:50.888Z,0.5
2022-12-04T08:18:02.119Z,0.5
2022-12-04T08:23:14.736Z,0.4
2022-12-04T08:28:29.704Z,0.4
2022-12-04T08:33:41.592Z,0.5
2022-12-04T08:38:52.959Z,0.6
2022-12-04T08:44:09.248Z,0.6
2022-12-04T09:00:04.402Z,0.8
2022-12-04T09:05:17.499Z,0.8
2022-12-04T09:10:25.981Z,0.7
2022-12-04T09:20:58.474Z,0.6
2022-12-04T09:26:14.191Z,0.6
2022-12-04T09:31:27.170Z,0.4
2022-12-04T09:42:04.108Z,0.4
2022-12-04T09:47:16.349Z,0.4
2022-12-04T09:52:28.572Z,0.5
2022-12-04T09:57:43.096Z,0.5
2022-12-04T10:02:57.174Z,1
2022-12-04T10:08:09.406Z,0.9
2022-12-04T10:13:19.543Z,1
2022-12-04T10:18:31.294Z,0.9
2022-12-04T10:23:41.806Z,0.9
2022-12-04T10:28:55.909Z,1
2022-12-04T10:34:03.491Z,1.1
2022-12-04T10:39:14.957Z,1.2
2022-12-04T10:44:27.077Z,1.3
2022-12-04T10:49:38.043Z,1.3
2022-12-04T10:54:49.394Z,1.2
2022-12-04T11:00:01.785Z,1
2022-12-04T11:05:12.606Z,1.1
2022-12-04T11:10:23.665Z,1.2
2022-12-04T11:20:57.041Z,1.6
2022-12-04T11:26:10.087Z,1.6
2022-12-04T11:31:20.169Z,1.5
2022-12-04T11:36:31.641Z,1.4
2022-12-04T11:41:43.040Z,1.4
2022-12-04T11:46:55.490Z,1.5
2022-12-04T11:52:07.364Z,1.5
2022-12-04T11:57:20.921Z,1.5
2022-12-04T12:02:35.451Z,1.5
2022-12-04T12:07:45.541Z,1.8
2022-12-04T12:13:02.365Z,1.8
2022-12-04T12:23:39.788Z,1.8
2022-12-04T12:28:54.159Z,1.8
2022-12-04T12:34:07.140Z,2.1
2022-12-04T12:44:39.746Z,2.3
2022-12-04T12:49:51.711Z,2.2
2022-12-04T13:00:26.548Z,2.2
2022-12-04T13:05:36.414Z,2.1
2022-12-04T13:10:48.384Z,2.1
2022-12-04T13:15:59.708Z,2.1
2022-12-04T13:31:55.047Z,2.1
2022-12-04T13:37:06.713Z,2.2
2022-12-04T13:42:22.576Z,2.2
2022-12-04T13:52:55.660Z,2.1
2022-12-04T13:58:12.167Z,2.1
2022-12-04T14:03:23.273Z,1.9
2022-12-04T14:08:34.773Z,1.9
2022-12-04T14:13:50.824Z,1.9
2022-12-04T14:19:02.667Z,1.7
2022-12-04T14:24:15.164Z,1.8
2022-12-04T14:29:27.795Z,1.8
2022-12-04T14:40:02.941Z,1.8
2022-12-04T14:50:43.257Z,1.7
2022-12-04T14:56:09.176Z,1.7
2022-12-04T15:01:30.249Z,1.7
2022-12-04T15:06:31.693Z,1.7
2022-12-04T15:11:48.839Z,1.7
2022-12-04T15:22:25.892Z,1.7
2022-12-04T15:27:38.981Z,1.7
2022-12-04T15:32:49.256Z,1.7
2022-12-04T15:38:03.540Z,1.7
2022-12-04T15:43:17.705Z,1.7
2022-12-04T15:48:36.467Z,1.8
2022-12-04T15:53:48.433Z,1.8
2022-12-04T15:59:03.695Z,1.8
2022-12-04T16:04:19.067Z,1.8
2022-12-04T16:09:32.278Z,1.8
2022-12-04T16:20:21.587Z,1.8
2022-12-04T16:25:30.052Z,1.7
2022-12-04T16:30:39.018Z,1.8
2022-12-04T16:35:54.744Z,1.8
2022-12-04T16:41:06.524Z,1.6
2022-12-04T16:51:40.220Z,1.6
2022-12-04T16:56:53.060Z,1.6
2022-12-04T17:18:21.684Z,1.6
2022-12-04T17:28:45.426Z,1.6
2022-12-04T17:39:20.324Z,1.6
2022-12-04T17:50:01.092Z,1.6
2022-12-04T17:55:18.026Z,1.6
2022-12-04T18:00:33.600Z,1.5
2022-12-04T18:05:39.782Z,1.5
2022-12-04T18:16:16.448Z,1.6
2022-12-04T18:21:31.466Z,1.6
2022-12-04T18:26:45.218Z,1.6
2022-12-04T18:37:20.039Z,1.5
2022-12-04T18:42:36.608Z,1.5
2022-12-04T18:47:47.816Z,1.5
2022-12-04T18:58:26.457Z,1.5
2022-12-04T19:03:36.776Z,1.2
2022-12-04T19:08:49.445Z,1.2
2022-12-04T19:14:23.961Z,1.2
2022-12-04T19:19:32.234Z,1.2
2022-12-04T19:24:42.671Z,1.2
2022-12-04T19:30:12.058Z,1.2
2022-12-04T19:40:57.262Z,1.2
2022-12-04T19:46:37.288Z,1.3
2022-12-04T20:02:46.264Z,1.3
2022-12-04T20:13:31.697Z,1.2
2022-12-04T20:18:57.485Z,1.2
2022-12-04T20:24:10.328Z,1.2
2022-12-04T20:29:22.805Z,1.1
2022-12-04T20:34:46.074Z,1.1
2022-12-04T20:40:08.502Z,1.1
2022-12-04T20:50:46.776Z,1.1
2022-12-04T21:07:09.729Z,1.1
2022-12-04T21:12:52.029Z,1.1
2022-12-04T21:23:18.824Z,1
2022-12-04T21:44:34.245Z,1
2022-12-04T21:55:11.512Z,1
2022-12-04T22:00:24.316Z,1.1
2022-12-04T22:05:42.175Z,1.1
2022-12-04T22:16:12.029Z,1.1
2022-12-04T22:21:22.303Z,1
2022-12-04T22:31:56.340Z,1
2022-12-04T22:37:07.514Z,1
2022-12-04T22:42:19.402Z,1
2022-12-04T22:47:34.789Z,0.9
2022-12-04T22:52:45.094Z,0.9
2022-12-04T22:58:00.547Z,0.9
2022-12-04T23:03:13.871Z,0.9
2022-12-04T23:08:30.587Z,0.9
2022-12-04T23:13:46.714Z,0.9
2022-12-04T23:18:55.213Z,0.4
2022-12-04T23:24:11.486Z,0.4
2022-12-04T23:29:54.145Z,0.4
2022-12-04T23:34:37.577Z,0.6
2022-12-04T23:39:48.225Z,0.7
2022-12-04T23:50:19.796Z,0.6
